AAL1625 KLAX-KPHX
Flight info
| Callsign | AAL1625 |
|---|---|
| Flight time | N/A |
| Altitude | 25000 |
| Route | DOTSS2 CNERY BLH HYDRR1 |
| Aircraft | A321/M-SDE3FGHIRWY/LB1 |
Departure
| Time | N/A |
|---|---|
| Airport | Los Angeles International Airport (KLAX) |
Arrival
| Time | 2026-05-03 20:41 |
|---|---|
| Airport | Phoenix Sky Harbor International Airport (KPHX) |
| Time | Latitude | Longitude | Altitude | Speed | Heading |
|---|---|---|---|---|---|
| 2026-05-03 20:15 | 33.54830 | -114.51533 | 29591 ft | 483 kts | 109° |
| 2026-05-03 20:15 | 33.54070 | -114.47651 | 29176 ft | 476 kts | 109° |
| 2026-05-03 20:15 | 33.53313 | -114.43802 | 28745 ft | 473 kts | 109° |
| 2026-05-03 20:15 | 33.52562 | -114.39981 | 28332 ft | 470 kts | 109° |
| 2026-05-03 20:16 | 33.51817 | -114.36185 | 27919 ft | 466 kts | 108° |
| 2026-05-03 20:16 | 33.51078 | -114.32421 | 27525 ft | 462 kts | 108° |
| 2026-05-03 20:16 | 33.50354 | -114.28737 | 27126 ft | 459 kts | 108° |
| 2026-05-03 20:16 | 33.49624 | -114.25029 | 26724 ft | 456 kts | 108° |
| 2026-05-03 20:17 | 33.48895 | -114.21351 | 26323 ft | 452 kts | 108° |
| 2026-05-03 20:17 | 33.48170 | -114.17699 | 25928 ft | 449 kts | 108° |
| 2026-05-03 20:17 | 33.47449 | -114.14077 | 25516 ft | 446 kts | 108° |
| 2026-05-03 20:17 | 33.46730 | -114.10474 | 25102 ft | 444 kts | 108° |
| 2026-05-03 20:18 | 33.46012 | -114.06887 | 24718 ft | 440 kts | 108° |
| 2026-05-03 20:18 | 33.45306 | -114.03366 | 24580 ft | 429 kts | 108° |
| 2026-05-03 20:18 | 33.44617 | -113.99929 | 24247 ft | 421 kts | 108° |
| 2026-05-03 20:18 | 33.43947 | -113.96594 | 23985 ft | 414 kts | 108° |
| 2026-05-03 20:19 | 33.43278 | -113.93268 | 23783 ft | 409 kts | 108° |
| 2026-05-03 20:19 | 33.42614 | -113.89968 | 23531 ft | 406 kts | 108° |
| 2026-05-03 20:19 | 33.41953 | -113.86687 | 23274 ft | 404 kts | 108° |
| 2026-05-03 20:19 | 33.41297 | -113.83429 | 23029 ft | 402 kts | 108° |
| 2026-05-03 20:20 | 33.40643 | -113.80183 | 22781 ft | 400 kts | 108° |
| 2026-05-03 20:20 | 33.39993 | -113.76953 | 22522 ft | 398 kts | 108° |
| 2026-05-03 20:20 | 33.39349 | -113.73788 | 22278 ft | 396 kts | 108° |
| 2026-05-03 20:20 | 33.38692 | -113.70599 | 22049 ft | 394 kts | 108° |
| 2026-05-03 20:21 | 33.37974 | -113.67449 | 21820 ft | 388 kts | 116° |
| 2026-05-03 20:21 | 33.36755 | -113.64627 | 21575 ft | 380 kts | 126° |
| 2026-05-03 20:21 | 33.35693 | -113.61717 | 21322 ft | 386 kts | 109° |
| 2026-05-03 20:21 | 33.35113 | -113.58578 | 21092 ft | 387 kts | 103° |
| 2026-05-03 20:22 | 33.34709 | -113.55395 | 20860 ft | 387 kts | 101° |
| 2026-05-03 20:22 | 33.34356 | -113.52214 | 20606 ft | 385 kts | 101° |
| 2026-05-03 20:22 | 33.33983 | -113.49100 | 20359 ft | 382 kts | 102° |
| 2026-05-03 20:22 | 33.33554 | -113.45975 | 20122 ft | 379 kts | 103° |
| 2026-05-03 20:23 | 33.33079 | -113.42878 | 19900 ft | 378 kts | 104° |
| 2026-05-03 20:23 | 33.32571 | -113.39800 | 19648 ft | 376 kts | 105° |
| 2026-05-03 20:23 | 33.32048 | -113.36747 | 19399 ft | 374 kts | 105° |
| 2026-05-03 20:23 | 33.31524 | -113.33709 | 19161 ft | 372 kts | 105° |
| 2026-05-03 20:24 | 33.31007 | -113.30683 | 18925 ft | 371 kts | 105° |
| 2026-05-03 20:24 | 33.30499 | -113.27672 | 18673 ft | 369 kts | 105° |
| 2026-05-03 20:24 | 33.29996 | -113.24675 | 18423 ft | 367 kts | 104° |
| 2026-05-03 20:24 | 33.29511 | -113.21733 | 18176 ft | 365 kts | 104° |
| 2026-05-03 20:25 | 33.29062 | -113.18756 | 17935 ft | 363 kts | 103° |
| 2026-05-03 20:25 | 33.28643 | -113.15792 | 17682 ft | 361 kts | 102° |
| 2026-05-03 20:25 | 33.28237 | -113.12839 | 17435 ft | 359 kts | 102° |
| 2026-05-03 20:25 | 33.27833 | -113.09904 | 17202 ft | 357 kts | 102° |
| 2026-05-03 20:26 | 33.27422 | -113.06987 | 17024 ft | 355 kts | 103° |
| 2026-05-03 20:26 | 33.27015 | -113.04080 | 16820 ft | 354 kts | 100° |
| 2026-05-03 20:26 | 33.26985 | -113.01135 | 16619 ft | 356 kts | 88° |
| 2026-05-03 20:26 | 33.27148 | -112.98192 | 16439 ft | 354 kts | 88° |
| 2026-05-03 20:27 | 33.27315 | -112.95261 | 16264 ft | 353 kts | 88° |
| 2026-05-03 20:27 | 33.27478 | -112.92380 | 16035 ft | 351 kts | 88° |
| 2026-05-03 20:27 | 33.27641 | -112.89475 | 15349 ft | 348 kts | 88° |
| 2026-05-03 20:27 | 33.27800 | -112.86603 | 14517 ft | 344 kts | 89° |
| 2026-05-03 20:28 | 33.27966 | -112.83798 | 13871 ft | 334 kts | 86° |
| 2026-05-03 20:28 | 33.28470 | -112.81162 | 13471 ft | 319 kts | 72° |
| 2026-05-03 20:28 | 33.29328 | -112.78766 | 13052 ft | 306 kts | 68° |
| 2026-05-03 20:28 | 33.30178 | -112.76500 | 12927 ft | 293 kts | 68° |
| 2026-05-03 20:29 | 33.30997 | -112.74304 | 12735 ft | 287 kts | 68° |
| 2026-05-03 20:29 | 33.31797 | -112.72162 | 12527 ft | 276 kts | 69° |
| 2026-05-03 20:29 | 33.32552 | -112.70138 | 12068 ft | 267 kts | 69° |
| 2026-05-03 20:29 | 33.33306 | -112.68120 | 11484 ft | 265 kts | 69° |
| 2026-05-03 20:30 | 33.34058 | -112.66141 | 11088 ft | 255 kts | 69° |
| 2026-05-03 20:30 | 33.34785 | -112.64245 | 10645 ft | 248 kts | 68° |
| 2026-05-03 20:30 | 33.35501 | -112.62387 | 10166 ft | 245 kts | 69° |
| 2026-05-03 20:30 | 33.36206 | -112.60550 | 9670 ft | 241 kts | 69° |
| 2026-05-03 20:31 | 33.36897 | -112.58739 | 9243 ft | 239 kts | 69° |
| 2026-05-03 20:31 | 33.37584 | -112.56938 | 8893 ft | 237 kts | 69° |
| 2026-05-03 20:31 | 33.38255 | -112.55175 | 8558 ft | 235 kts | 69° |
| 2026-05-03 20:31 | 33.38929 | -112.53402 | 8315 ft | 233 kts | 69° |
| 2026-05-03 20:32 | 33.39600 | -112.51632 | 8275 ft | 234 kts | 68° |
| 2026-05-03 20:32 | 33.40269 | -112.49873 | 8180 ft | 227 kts | 68° |
| 2026-05-03 20:32 | 33.40893 | -112.48166 | 7942 ft | 222 kts | 70° |
| 2026-05-03 20:32 | 33.41488 | -112.46476 | 7678 ft | 220 kts | 70° |
| 2026-05-03 20:33 | 33.42075 | -112.44790 | 7431 ft | 219 kts | 70° |
| 2026-05-03 20:33 | 33.42635 | -112.43101 | 7159 ft | 217 kts | 76° |
| 2026-05-03 20:33 | 33.42856 | -112.41339 | 6910 ft | 213 kts | 91° |
| 2026-05-03 20:33 | 33.42974 | -112.39575 | 6668 ft | 216 kts | 74° |
| 2026-05-03 20:34 | 33.43703 | -112.38027 | 6451 ft | 217 kts | 62° |
| 2026-05-03 20:34 | 33.44061 | -112.36326 | 6228 ft | 211 kts | 90° |
| 2026-05-03 20:34 | 33.44072 | -112.34571 | 5972 ft | 210 kts | 92° |
| 2026-05-03 20:34 | 33.44069 | -112.32821 | 5731 ft | 210 kts | 92° |
| 2026-05-03 20:35 | 33.44070 | -112.31083 | 5606 ft | 208 kts | 92° |
| 2026-05-03 20:35 | 33.44072 | -112.29346 | 5400 ft | 208 kts | 92° |
| 2026-05-03 20:35 | 33.44075 | -112.27673 | 5152 ft | 192 kts | 91° |
| 2026-05-03 20:35 | 33.44078 | -112.26138 | 4919 ft | 179 kts | 92° |
| 2026-05-03 20:36 | 33.44081 | -112.24724 | 4696 ft | 162 kts | 93° |
| 2026-05-03 20:36 | 33.44080 | -112.23418 | 4488 ft | 158 kts | 93° |
| 2026-05-03 20:36 | 33.44082 | -112.22116 | 4275 ft | 156 kts | 92° |
| 2026-05-03 20:36 | 33.44083 | -112.20811 | 4073 ft | 156 kts | 92° |
| 2026-05-03 20:37 | 33.44084 | -112.19509 | 3863 ft | 156 kts | 91° |
| 2026-05-03 20:37 | 33.44084 | -112.18211 | 3657 ft | 155 kts | 92° |
| 2026-05-03 20:37 | 33.44085 | -112.16920 | 3450 ft | 156 kts | 92° |
| 2026-05-03 20:37 | 33.44086 | -112.15629 | 3242 ft | 154 kts | 92° |
| 2026-05-03 20:38 | 33.44088 | -112.14344 | 3041 ft | 154 kts | 93° |
| 2026-05-03 20:38 | 33.44089 | -112.13062 | 2833 ft | 153 kts | 92° |
| 2026-05-03 20:38 | 33.44089 | -112.11802 | 2636 ft | 153 kts | 92° |
| 2026-05-03 20:38 | 33.44088 | -112.10540 | 2435 ft | 152 kts | 93° |
| 2026-05-03 20:39 | 33.44088 | -112.09286 | 2233 ft | 149 kts | 94° |
| 2026-05-03 20:39 | 33.44087 | -112.08049 | 2033 ft | 148 kts | 94° |
| 2026-05-03 20:39 | 33.44087 | -112.06815 | 1837 ft | 148 kts | 93° |
| 2026-05-03 20:39 | 33.44086 | -112.05580 | 1638 ft | 149 kts | 93° |
| 2026-05-03 20:40 | 33.44086 | -112.04325 | 1450 ft | 152 kts | 94° |
| 2026-05-03 20:40 | 33.44085 | -112.03039 | 1239 ft | 154 kts | 93° |
| 2026-05-03 20:40 | 33.44082 | -112.01797 | 1130 ft | 129 kts | 90° |
| 2026-05-03 20:40 | 33.44084 | -112.01082 | 1133 ft | 55 kts | 89° |
| 2026-05-03 20:41 | 33.44080 | -112.00804 | 1135 ft | 17 kts | 108° |
| 2026-05-03 20:41 | 33.44015 | -112.00708 | 1131 ft | 13 kts | 134° |
| 2026-05-03 20:41 | 33.43975 | -112.00608 | 1136 ft | 14 kts | 98° |
| 2026-05-03 20:41 | 33.43973 | -112.00487 | 1131 ft | 15 kts | 90° |
| 2026-05-03 20:42 | 33.43954 | -112.00395 | 1131 ft | 10 kts | 142° |
| 2026-05-03 20:42 | 33.43907 | -112.00334 | 1131 ft | 11 kts | 100° |
| 2026-05-03 20:42 | 33.43904 | -112.00239 | 1131 ft | 12 kts | 90° |
| 2026-05-03 20:42 | 33.43905 | -112.00135 | 1131 ft | 12 kts | 90° |
| 2026-05-03 20:43 | 33.43854 | -112.00079 | 1131 ft | 10 kts | 175° |
| 2026-05-03 20:43 | 33.43798 | -112.00077 | 1131 ft | 8 kts | 180° |
| 2026-05-03 20:43 | 33.43760 | -112.00088 | 1131 ft | 3 kts | 232° |
| 2026-05-03 20:43 | 33.43756 | -112.00104 | 1131 ft | 2 kts | 258° |
| 2026-05-03 20:44 | 33.43755 | -112.00116 | 1131 ft | 1 kts | 265° |
| 2026-05-03 20:44 | 33.43755 | -112.00123 | 1131 ft | 1 kts | 267° |
| 2026-05-03 20:44 | 33.43755 | -112.00129 | 1131 ft | 1 kts | 268° |
| 2026-05-03 20:44 | 33.43755 | -112.00131 | 1131 ft | 0 kts | 268° |
| 2026-05-03 20:51 | 33.43755 | -112.00130 | 1131 ft | 0 kts | 268° |